createdAt,value
2022-08-09T00:00:23.166Z,76.12
2022-08-09T00:02:52.610Z,75.98
2022-08-09T00:06:17.349Z,76.48
2022-08-09T00:08:32.084Z,76.73
2022-08-09T00:11:00.941Z,76.58
2022-08-09T00:13:33.722Z,76.50
2022-08-09T00:16:05.854Z,76.79
2022-08-09T00:18:35.968Z,77.11
2022-08-09T00:21:08.630Z,77.23
2022-08-09T00:23:54.985Z,77.66
2022-08-09T00:26:32.190Z,77.74
2022-08-09T00:29:02.777Z,77.53
2022-08-09T00:31:59.358Z,78.35
2022-08-09T00:34:19.715Z,77.71
2022-08-09T00:36:49.207Z,77.85
2022-08-09T00:40:13.597Z,78.21
2022-08-09T00:44:14.503Z,78.63
2022-08-09T00:44:53.582Z,78.58
2022-08-09T00:47:24.900Z,78.73
2022-08-09T00:49:54.788Z,78.93
2022-08-09T00:52:30.370Z,79.13
2022-08-09T00:55:02.273Z,79.27
2022-08-09T00:57:34.330Z,79.10
2022-08-09T01:00:21.657Z,79.08
2022-08-09T01:03:14.569Z,79.69
2022-08-09T01:05:54.050Z,79.89
2022-08-09T01:08:49.467Z,79.85
2022-08-09T01:11:53.325Z,79.71
2022-08-09T01:14:22.935Z,79.93
2022-08-09T01:16:55.594Z,79.93
2022-08-09T01:20:02.865Z,79.92
2022-08-09T01:24:00.790Z,80.14
2022-08-09T01:26:11.923Z,80.21
2022-08-09T01:28:47.888Z,80.26
2022-08-09T01:32:27.991Z,80.08
2022-08-09T01:34:09.639Z,79.83
2022-08-09T01:36:39.411Z,79.85
2022-08-09T01:39:07.512Z,79.57
2022-08-09T01:41:37.791Z,79.42
2022-08-09T01:44:25.633Z,79.81
2022-08-09T01:46:53.805Z,79.90
2022-08-09T01:49:24.159Z,79.41
2022-08-09T01:51:58.485Z,79.26
2022-08-09T01:55:03.132Z,79.35
2022-08-09T01:57:40.270Z,79.21
2022-08-09T02:00:34.407Z,79.32
2022-08-09T02:03:05.575Z,79.04
2022-08-09T02:05:37.823Z,78.82
2022-08-09T02:08:35.960Z,78.84
2022-08-09T02:11:03.646Z,78.66
2022-08-09T02:14:07.925Z,78.61
2022-08-09T02:16:59.054Z,78.61
2022-08-09T02:19:38.630Z,78.64
2022-08-09T02:22:27.305Z,78.87
2022-08-09T02:25:08.170Z,78.67
2022-08-09T02:27:58.368Z,78.59
2022-08-09T02:30:29.627Z,78.68
2022-08-09T02:33:00.841Z,78.52
2022-08-09T02:36:01.475Z,78.22
2022-08-09T02:38:21.894Z,78.33
2022-08-09T02:41:06.589Z,78.30
2022-08-09T02:43:42.462Z,78.34
2022-08-09T02:46:29.326Z,78.16
2022-08-09T02:49:03.348Z,77.76
2022-08-09T02:51:40.615Z,77.54
2022-08-09T02:54:13.869Z,77.39
2022-08-09T02:56:48.725Z,77.62
2022-08-09T02:59:26.564Z,77.45
2022-08-09T03:02:09.733Z,77.48
2022-08-09T03:04:46.856Z,76.96
2022-08-09T03:07:19.401Z,76.39
2022-08-09T03:09:56.583Z,75.88
2022-08-09T03:12:28.084Z,76.20
2022-08-09T03:14:58.100Z,76.06
2022-08-09T03:17:27.131Z,75.39
2022-08-09T03:20:05.035Z,75.21
2022-08-09T03:22:44.728Z,75.04
2022-08-09T03:25:26.067Z,74.86
2022-08-09T03:27:55.634Z,74.81
2022-08-09T03:30:29.903Z,73.97
2022-08-09T03:33:18.464Z,73.60
2022-08-09T03:36:12.342Z,73.44
2022-08-09T03:38:41.949Z,72.97
2022-08-09T03:41:14.667Z,72.64
2022-08-09T03:44:03.383Z,72.07
2022-08-09T03:46:32.611Z,71.94
2022-08-09T03:49:04.269Z,71.94
2022-08-09T03:51:54.998Z,71.57
2022-08-09T03:54:29.807Z,71.11
2022-08-09T03:57:12.438Z,70.89
2022-08-09T03:59:54.360Z,71.01
2022-08-09T04:02:27.902Z,71.49
2022-08-09T04:04:58.652Z,71.67
2022-08-09T04:07:33.891Z,71.04
2022-08-09T04:10:20.508Z,70.64
2022-08-09T04:12:51.405Z,70.94
2022-08-09T04:15:38.874Z,70.48
2022-08-09T04:18:16.562Z,70.06
2022-08-09T04:20:49.695Z,69.18
2022-08-09T04:23:23.208Z,68.46
2022-08-09T04:25:53.262Z,68.49
2022-08-09T04:28:33.123Z,68.65
2022-08-09T04:31:05.768Z,69.09
2022-08-09T04:33:47.635Z,69.06
2022-08-09T04:36:26.128Z,69.33
2022-08-09T04:38:59.437Z,68.90
2022-08-09T04:41:32.473Z,69.25
2022-08-09T04:44:11.148Z,69.45
2022-08-09T04:46:58.384Z,69.09
2022-08-09T04:49:53.163Z,69.13
2022-08-09T04:52:29.483Z,69.27
2022-08-09T04:55:00.375Z,70.20
2022-08-09T04:57:59.044Z,69.74
2022-08-09T05:00:17.063Z,69.87
2022-08-09T05:02:48.700Z,70.25
2022-08-09T05:05:32.161Z,70.42
2022-08-09T05:08:09.317Z,70.74
2022-08-09T05:10:37.040Z,70.20
2022-08-09T05:13:04.472Z,69.78
2022-08-09T05:15:38.486Z,69.32
2022-08-09T05:18:38.520Z,68.69
2022-08-09T05:20:54.389Z,67.99
2022-08-09T05:23:55.452Z,68.07
2022-08-09T05:26:10.004Z,67.46
2022-08-09T05:28:50.067Z,66.95
2022-08-09T05:31:37.071Z,65.99
2022-08-09T05:34:07.809Z,64.36
2022-08-09T05:36:46.757Z,61.99
2022-08-09T05:39:28.631Z,60.74
2022-08-09T05:42:01.493Z,59.30
2022-08-09T05:44:32.717Z,55.97
2022-08-09T05:47:05.015Z,51.86
2022-08-09T05:50:30.292Z,51.09
2022-08-09T05:52:24.684Z,51.22
2022-08-09T05:54:52.694Z,50.63
2022-08-09T05:57:25.001Z,50.26
2022-08-09T06:00:13.419Z,50.75
2022-08-09T06:02:42.308Z,51.66
2022-08-09T06:05:14.073Z,52.27
2022-08-09T06:07:43.639Z,52.85
2022-08-09T06:10:15.881Z,53.35
2022-08-09T06:12:45.501Z,54.06
2022-08-09T06:15:26.456Z,53.76
2022-08-09T06:17:55.582Z,54.41
2022-08-09T06:20:22.971Z,54.78
2022-08-09T06:22:50.398Z,54.54
2022-08-09T06:25:18.762Z,54.43
2022-08-09T06:27:51.833Z,54.29
2022-08-09T06:30:19.531Z,54.50
2022-08-09T06:32:59.007Z,54.65
2022-08-09T06:35:55.883Z,55.01
2022-08-09T06:38:31.930Z,55.54
2022-08-09T06:41:18.267Z,56.20
2022-08-09T06:43:47.691Z,56.09
2022-08-09T06:46:40.219Z,55.42
2022-08-09T06:49:03.842Z,52.58
2022-08-09T06:51:33.949Z,51.46
2022-08-09T06:54:09.137Z,50.97
2022-08-09T06:56:40.124Z,50.30
2022-08-09T07:00:55.188Z,50.13
2022-08-09T07:02:04.500Z,50.76
2022-08-09T07:04:32.689Z,50.85
2022-08-09T07:07:01.031Z,52.07
2022-08-09T07:09:57.310Z,52.77
2022-08-09T07:12:20.306Z,53.44
2022-08-09T07:14:51.372Z,54.29
2022-08-09T07:17:21.806Z,54.98
2022-08-09T07:19:55.239Z,55.80
2022-08-09T07:22:34.726Z,56.60
2022-08-09T07:25:09.745Z,57.26
2022-08-09T07:27:42.599Z,57.17
2022-08-09T07:30:15.175Z,57.57
2022-08-09T07:32:43.646Z,57.36
2022-08-09T07:35:14.703Z,57.77
2022-08-09T07:37:45.794Z,57.95
2022-08-09T07:40:18.604Z,57.19
2022-08-09T07:45:38.417Z,56.44
2022-08-09T07:48:25.851Z,55.42
2022-08-09T07:51:10.171Z,55.13
2022-08-09T07:54:07.186Z,54.53
2022-08-09T07:56:48.806Z,53.99
2022-08-09T07:59:33.718Z,55.37
2022-08-09T08:02:09.078Z,54.89
2022-08-09T08:04:37.326Z,55.25
2022-08-09T08:07:09.464Z,53.91
2022-08-09T08:09:55.258Z,51.81
2022-08-09T08:12:43.547Z,50.27
2022-08-09T08:15:17.325Z,49.92
2022-08-09T08:17:53.423Z,47.79
2022-08-09T08:20:29.520Z,48.05
2022-08-09T08:23:06.546Z,48.02
2022-08-09T08:25:50.334Z,48.94
2022-08-09T08:28:35.017Z,49.36
2022-08-09T08:31:14.395Z,49.10
2022-08-09T08:33:52.877Z,48.55
2022-08-09T08:36:29.036Z,48.37
2022-08-09T08:38:58.128Z,47.73
2022-08-09T08:41:38.695Z,48.43
2022-08-09T08:44:15.017Z,48.21
2022-08-09T08:47:00.070Z,47.69
2022-08-09T08:49:46.613Z,46.99
2022-08-09T08:55:07.814Z,47.20
2022-08-09T08:57:37.417Z,46.96
2022-08-09T09:00:16.783Z,47.64
2022-08-09T09:02:53.392Z,48.32
2022-08-09T09:05:58.743Z,48.06
2022-08-09T09:08:30.515Z,48.91
2022-08-09T09:11:04.265Z,49.19
2022-08-09T09:13:55.735Z,48.52
2022-08-09T09:16:33.598Z,49.48
2022-08-09T09:19:41.099Z,49.72
2022-08-09T09:21:58.105Z,49.99
2022-08-09T09:24:31.052Z,49.83
2022-08-09T09:27:01.570Z,49.19
2022-08-09T09:30:05.284Z,48.52
2022-08-09T09:32:34.262Z,48.33
2022-08-09T09:35:10.010Z,47.76
2022-08-09T09:37:40.565Z,47.68
2022-08-09T09:40:11.602Z,47.11
2022-08-09T09:42:43.039Z,46.48
2022-08-09T09:45:25.770Z,46.17
2022-08-09T09:47:58.553Z,46.28
2022-08-09T09:50:49.604Z,46.60
2022-08-09T09:53:34.393Z,47.34
2022-08-09T09:56:19.804Z,48.30
2022-08-09T09:58:58.947Z,49.19
2022-08-09T10:01:31.278Z,50.19
2022-08-09T10:04:22.615Z,50.07
2022-08-09T10:06:58.277Z,49.77
2022-08-09T10:09:55.029Z,49.27
2022-08-09T10:12:43.642Z,48.93
2022-08-09T10:15:51.113Z,48.57
2022-08-09T10:18:12.132Z,49.17
2022-08-09T10:20:45.187Z,49.46
2022-08-09T10:23:16.927Z,50.00
2022-08-09T10:26:06.267Z,49.97
2022-08-09T10:28:36.173Z,49.45
2022-08-09T10:32:27.884Z,48.86
2022-08-09T10:34:09.952Z,48.93
2022-08-09T10:36:42.128Z,48.93
2022-08-09T10:39:15.949Z,48.57
2022-08-09T10:41:47.558Z,48.14
2022-08-09T10:44:25.689Z,47.89
2022-08-09T10:48:16.651Z,47.76
2022-08-09T10:50:49.320Z,47.83
2022-08-09T10:53:23.191Z,47.86
2022-08-09T10:55:58.493Z,48.02
2022-08-09T10:58:34.526Z,48.08
2022-08-09T11:03:02.463Z,48.41
2022-08-09T11:04:30.067Z,48.53
2022-08-09T11:06:59.587Z,48.71
2022-08-09T11:09:41.200Z,49.23
2022-08-09T11:12:26.596Z,49.38
2022-08-09T11:15:01.779Z,49.72
2022-08-09T11:17:31.456Z,50.31
2022-08-09T11:20:11.532Z,50.02
2022-08-09T11:22:55.483Z,50.05
2022-08-09T11:25:44.498Z,49.97
2022-08-09T11:28:38.851Z,50.56
2022-08-09T11:31:49.865Z,50.20
2022-08-09T11:34:29.666Z,49.73
2022-08-09T11:36:59.978Z,48.98
2022-08-09T11:39:38.209Z,49.10
2022-08-09T11:42:14.855Z,48.33
2022-08-09T11:44:46.780Z,48.36
2022-08-09T11:47:15.999Z,48.25
2022-08-09T11:50:55.020Z,47.86
2022-08-09T11:54:01.361Z,48.52
2022-08-09T11:55:53.485Z,48.74
2022-08-09T11:58:33.013Z,49.27
2022-08-09T12:01:09.064Z,49.26
2022-08-09T12:03:56.236Z,49.00
2022-08-09T12:06:32.490Z,48.93
2022-08-09T12:09:19.350Z,49.64
2022-08-09T12:12:12.035Z,49.68
2022-08-09T12:15:08.279Z,49.29
2022-08-09T12:17:41.657Z,49.07
2022-08-09T12:20:16.311Z,48.33
2022-08-09T12:22:50.248Z,48.84
2022-08-09T12:25:32.002Z,48.89
2022-08-09T12:29:09.806Z,49.57
2022-08-09T12:30:58.901Z,49.34
2022-08-09T12:33:35.379Z,49.30
2022-08-09T12:36:27.662Z,48.62
2022-08-09T12:39:00.124Z,48.30
2022-08-09T12:41:39.140Z,48.16
2022-08-09T12:44:10.345Z,48.58
2022-08-09T12:46:48.972Z,48.73
2022-08-09T12:49:18.453Z,48.23
2022-08-09T12:52:00.950Z,48.80
2022-08-09T12:56:11.060Z,48.48
2022-08-09T12:57:46.299Z,48.26
2022-08-09T13:00:18.396Z,48.38
2022-08-09T13:02:58.062Z,48.49
2022-08-09T13:05:35.459Z,48.95
2022-08-09T13:08:20.962Z,49.36
2022-08-09T13:10:52.117Z,49.23
2022-08-09T13:14:40.733Z,48.83
2022-08-09T13:16:45.924Z,49.02
2022-08-09T13:20:10.482Z,49.32
2022-08-09T13:23:06.112Z,49.46
2022-08-09T13:25:53.005Z,49.11
2022-08-09T13:28:34.147Z,49.02
2022-08-09T13:32:14.964Z,48.98
2022-08-09T13:33:56.906Z,48.98
2022-08-09T13:36:40.440Z,48.86
2022-08-09T13:41:54.353Z,49.37
2022-08-09T13:42:05.172Z,49.06
2022-08-09T13:44:33.727Z,49.53
2022-08-09T13:47:26.617Z,48.54
2022-08-09T13:49:55.979Z,48.96
2022-08-09T13:52:25.734Z,49.24
2022-08-09T13:54:59.287Z,49.24
2022-08-09T13:57:37.217Z,49.30
2022-08-09T14:00:18.357Z,49.33
2022-08-09T14:03:02.721Z,49.64
2022-08-09T14:05:56.867Z,49.45
2022-08-09T14:08:28.134Z,49.97
2022-08-09T14:10:56.836Z,50.29
2022-08-09T14:13:27.868Z,50.52
2022-08-09T14:16:09.465Z,50.42
2022-08-09T14:18:45.474Z,50.36
2022-08-09T14:21:20.702Z,50.65
2022-08-09T14:23:55.047Z,50.74
2022-08-09T14:26:33.491Z,51.00
2022-08-09T14:29:08.342Z,50.87
2022-08-09T14:32:13.368Z,51.42
2022-08-09T14:34:43.918Z,51.66
2022-08-09T14:37:12.645Z,51.77
2022-08-09T14:39:46.517Z,52.25
2022-08-09T14:42:30.752Z,52.01
2022-08-09T14:46:40.362Z,52.21
2022-08-09T14:47:58.213Z,52.22
2022-08-09T14:50:35.133Z,52.56
2022-08-09T14:53:12.145Z,52.06
2022-08-09T14:55:42.314Z,51.92
2022-08-09T14:58:15.905Z,52.30
2022-08-09T15:00:48.527Z,52.36
2022-08-09T15:03:19.990Z,52.59
2022-08-09T15:05:52.509Z,52.34
2022-08-09T15:08:25.830Z,52.23
2022-08-09T15:11:01.617Z,52.54
2022-08-09T15:13:56.784Z,52.45
2022-08-09T15:16:20.428Z,52.59
2022-08-09T15:18:48.264Z,52.36
2022-08-09T15:21:55.923Z,52.37
2022-08-09T15:24:12.590Z,52.62
2022-08-09T15:26:45.365Z,52.88
2022-08-09T15:30:55.875Z,52.72
2022-08-09T15:32:03.507Z,52.75
2022-08-09T15:34:34.344Z,52.22
2022-08-09T15:37:23.649Z,52.17
2022-08-09T15:39:53.808Z,51.68
2022-08-09T15:42:22.474Z,52.07
2022-08-09T15:44:50.795Z,52.49
2022-08-09T15:47:21.635Z,52.60
2022-08-09T15:50:03.437Z,52.54
2022-08-09T15:52:35.222Z,52.67
2022-08-09T15:55:05.978Z,52.86
2022-08-09T15:57:44.317Z,52.95
2022-08-09T16:00:25.495Z,52.91
2022-08-09T16:02:56.258Z,53.09
2022-08-09T16:05:47.698Z,53.39
2022-08-09T16:08:30.957Z,53.58
2022-08-09T16:11:01.584Z,53.83
2022-08-09T16:14:04.115Z,53.54
2022-08-09T16:16:25.969Z,54.05
2022-08-09T16:18:55.676Z,54.35
2022-08-09T16:21:26.154Z,54.59
2022-08-09T16:23:55.965Z,54.83
2022-08-09T16:26:33.350Z,54.92
2022-08-09T16:29:11.476Z,54.71
2022-08-09T16:32:17.805Z,55.12
2022-08-09T16:34:56.121Z,55.07
2022-08-09T16:37:17.754Z,55.41
2022-08-09T16:39:48.143Z,55.79
2022-08-09T16:42:30.957Z,55.86
2022-08-09T16:44:58.375Z,56.21
2022-08-09T16:48:39.386Z,56.20
2022-08-09T16:50:32.753Z,56.40
2022-08-09T16:53:02.547Z,56.49
2022-08-09T16:55:58.714Z,56.60
2022-08-09T16:58:20.993Z,57.04
2022-08-09T17:00:50.191Z,57.44
2022-08-09T17:03:21.643Z,57.45
2022-08-09T17:06:08.047Z,57.63
2022-08-09T17:09:00.034Z,57.86
2022-08-09T17:11:32.838Z,58.03
2022-08-09T17:14:26.037Z,58.38
2022-08-09T17:16:59.714Z,58.78
2022-08-09T17:20:05.146Z,59.33
2022-08-09T17:22:23.743Z,59.62
2022-08-09T17:24:54.884Z,59.89
2022-08-09T17:27:23.724Z,60.04
2022-08-09T17:29:52.243Z,60.17
2022-08-09T17:32:26.612Z,60.56
2022-08-09T17:35:11.435Z,60.78
2022-08-09T17:38:10.167Z,61.01
2022-08-09T17:40:29.659Z,61.38
2022-08-09T17:42:59.709Z,61.45
2022-08-09T17:46:02.221Z,61.63
2022-08-09T17:48:18.497Z,61.85
2022-08-09T17:51:01.759Z,62.32
2022-08-09T17:53:42.813Z,62.65
2022-08-09T17:56:11.367Z,62.96
2022-08-09T17:58:38.857Z,63.38
2022-08-09T18:01:15.606Z,63.52
2022-08-09T18:03:54.839Z,63.34
2022-08-09T18:06:31.768Z,63.66
2022-08-09T18:09:03.342Z,63.81
2022-08-09T18:12:05.802Z,64.16
2022-08-09T18:14:21.768Z,64.46
2022-08-09T18:16:49.964Z,64.65
2022-08-09T18:20:58.320Z,64.90
2022-08-09T18:22:13.060Z,65.33
2022-08-09T18:24:40.885Z,65.57
2022-08-09T18:27:10.036Z,65.52
2022-08-09T18:30:38.595Z,65.57
2022-08-09T18:32:32.259Z,65.45
2022-08-09T18:34:59.730Z,66.20
2022-08-09T18:37:47.975Z,66.14
2022-08-09T18:40:14.723Z,66.23
2022-08-09T18:42:47.054Z,66.85
2022-08-09T18:45:21.665Z,67.22
2022-08-09T18:48:02.370Z,66.92
2022-08-09T18:50:33.589Z,67.32
2022-08-09T18:53:01.658Z,67.29
2022-08-09T18:55:56.021Z,67.86
2022-08-09T18:58:31.906Z,68.36
2022-08-09T19:01:00.414Z,68.85
2022-08-09T19:03:28.769Z,68.40
2022-08-09T19:06:03.672Z,68.94
2022-08-09T19:08:31.958Z,68.63
2022-08-09T19:10:59.416Z,68.93
2022-08-09T19:13:38.468Z,69.27
2022-08-09T19:16:21.022Z,69.51
2022-08-09T19:18:49.120Z,69.06
2022-08-09T19:21:18.936Z,69.51
2022-08-09T19:24:33.357Z,70.17
2022-08-09T19:26:38.034Z,70.83
2022-08-09T19:29:15.427Z,70.20
2022-08-09T19:31:49.324Z,70.21
2022-08-09T19:34:21.464Z,70.58
2022-08-09T19:36:51.137Z,70.90
2022-08-09T19:39:20.681Z,71.02
2022-08-09T19:41:57.453Z,71.52
2022-08-09T19:44:25.220Z,71.06
2022-08-09T19:46:53.476Z,71.19
2022-08-09T19:50:05.317Z,71.51
2022-08-09T19:52:12.060Z,71.15
2022-08-09T19:54:40.489Z,71.49
2022-08-09T19:57:09.270Z,71.57
2022-08-09T19:59:58.202Z,71.82
2022-08-09T20:04:11.438Z,71.47
2022-08-09T20:05:14.884Z,72.04
2022-08-09T20:07:59.470Z,71.95
2022-08-09T20:10:34.315Z,72.01
2022-08-09T20:13:03.349Z,71.78
2022-08-09T20:16:34.501Z,72.14
2022-08-09T20:18:19.677Z,72.63
2022-08-09T20:20:47.654Z,72.64
2022-08-09T20:23:21.114Z,72.49
2022-08-09T20:25:52.509Z,72.23
2022-08-09T20:28:34.256Z,72.10
2022-08-09T20:31:05.431Z,72.53
2022-08-09T20:33:39.260Z,72.78
2022-08-09T20:36:12.740Z,72.54
2022-08-09T20:41:34.905Z,72.70
2022-08-09T20:44:06.851Z,72.51
2022-08-09T20:46:42.878Z,72.63
2022-08-09T20:49:14.117Z,72.92
2022-08-09T20:51:44.274Z,73.08
2022-08-09T20:54:12.510Z,73.00
2022-08-09T20:56:49.727Z,73.18
2022-08-09T20:59:50.179Z,72.97
2022-08-09T21:02:17.422Z,73.29
2022-08-09T21:05:55.219Z,73.18
2022-08-09T21:07:40.418Z,73.09
2022-08-09T21:10:11.635Z,73.17
2022-08-09T21:12:39.876Z,73.49
2022-08-09T21:15:12.360Z,73.32
2022-08-09T21:18:23.978Z,73.43
2022-08-09T21:20:30.073Z,73.85
2022-08-09T21:22:59.333Z,73.58
2022-08-09T21:25:56.019Z,73.84
2022-08-09T21:28:34.872Z,73.94
2022-08-09T21:31:18.147Z,74.25
2022-08-09T21:33:50.779Z,74.49
2022-08-09T21:36:27.763Z,74.71
2022-08-09T21:38:59.562Z,74.79
2022-08-09T21:42:05.209Z,74.89
2022-08-09T21:44:32.925Z,74.67
2022-08-09T21:47:08.889Z,75.08
2022-08-09T21:49:39.571Z,75.17
2022-08-09T21:52:17.879Z,75.24
2022-08-09T21:54:49.612Z,75.63
2022-08-09T21:57:37.458Z,75.61
2022-08-09T22:00:18.116Z,75.80
2022-08-09T22:02:58.776Z,75.92
2022-08-09T22:05:35.560Z,76.01
2022-08-09T22:08:11.905Z,76.10
2022-08-09T22:11:00.477Z,75.91
2022-08-09T22:13:36.787Z,76.37
2022-08-09T22:16:07.485Z,76.36
2022-08-09T22:18:37.287Z,76.48
2022-08-09T22:21:09.241Z,76.47
2022-08-09T22:36:53.950Z,76.07
2022-08-09T22:39:56.360Z,76.00
2022-08-09T22:42:38.809Z,75.80
2022-08-09T22:48:10.229Z,75.50
2022-08-09T22:48:11.849Z,75.54
2022-08-09T22:50:53.012Z,75.38
2022-08-09T22:53:25.260Z,74.93
2022-08-09T22:56:29.898Z,75.09
2022-08-09T22:58:56.837Z,74.79
2022-08-09T23:01:25.259Z,75.39
2022-08-09T23:04:03.420Z,74.95
2022-08-09T23:09:49.634Z,75.20
2022-08-09T23:12:17.054Z,75.27
2022-08-09T23:14:46.223Z,75.24
2022-08-09T23:17:17.231Z,75.45
2022-08-09T23:20:01.075Z,75.15
2022-08-09T23:22:33.997Z,75.27
2022-08-09T23:25:12.645Z,75.42
2022-08-09T23:27:57.177Z,75.59
2022-08-09T23:30:33.201Z,75.58
2022-08-09T23:33:00.694Z,75.44
2022-08-09T23:35:31.945Z,75.47
2022-08-09T23:38:23.592Z,75.69
2022-08-09T23:40:51.563Z,75.62
2022-08-09T23:43:20.655Z,75.52
2022-08-09T23:45:51.906Z,75.57
2022-08-09T23:48:24.139Z,75.65
2022-08-09T23:50:51.662Z,75.64
2022-08-09T23:53:18.877Z,75.52
2022-08-09T23:55:54.517Z,75.34
2022-08-09T23:58:30.153Z,75.68
